| time (UTC) | temp F | wind direction | speed knots | gust knots | rain 1hr in | rain 24hr in | rain mn in | humidity % | barometer mb |
| 20260831230046 | 73 | 278 | 0.0 | 0.0 | 0.00 | 0.00 | 0.00 | 80 | 1019.7 |
| 20260831225541 | 73 | 278 | 0.0 | 0.0 | 0.00 | 0.00 | 0.00 | 82 | 1019.8 |
| 20260831225035 | 73 | 278 | 0.0 | 0.0 | 0.00 | 0.00 | 0.00 | 81 | 1019.8 |
| 20260831224530 | 74 | 278 | 0.0 | 0.9 | 0.00 | 0.00 | 0.00 | 82 | 1019.8 |
| 20260831224026 | 74 | 278 | 0.9 | 0.9 | 0.00 | 0.00 | 0.00 | 82 | 1019.8 |
| 20260831223521 | 74 | 278 | 0.0 | 0.9 | 0.00 | 0.00 | 0.00 | 81 | 1020.0 |
| 20260831223017 | 74 | 278 | 0.0 | 0.9 | 0.00 | 0.00 | 0.00 | 79 | 1020.0 |
| 20260831222513 | 74 | 278 | 0.0 | 0.9 | 0.00 | 0.00 | 0.00 | 79 | 1020.1 |
| 20260831222012 | 74 | 278 | 1.7 | 2.6 | 0.00 | 0.00 | 0.00 | 79 | 1019.9 |
| 20260831221509 | 75 | 278 | 1.7 | 2.6 | 0.00 | 0.00 | 0.00 | 79 | 1019.9 |
| 20260831221003 | 75 | 273 | 0.9 | 2.6 | 0.00 | 0.00 | 0.00 | 80 | 1020.0 |
| 20260831220459 | 75 | 264 | 0.0 | 0.9 | 0.00 | 0.00 | 0.00 | 81 | 1019.9 |
| 20260831215954 | 75 | 216 | 0.9 | 2.6 | 0.00 | 0.00 | 0.00 | 79 | 1020.1 |
| 20260831215449 | 75 | 200 | 0.0 | 0.9 | 0.00 | 0.00 | 0.00 | 79 | 1020.1 |
| 20260831214945 | 75 | 296 | 0.9 | 2.6 | 0.00 | 0.00 | 0.00 | 79 | 1020.2 |
| 20260831214443 | 74 | 293 | 0.0 | 2.6 | 0.00 | 0.00 | 0.00 | 81 | 1020.1 |
| 20260831213938 | 74 | 293 | 0.0 | 2.6 | 0.00 | 0.00 | 0.00 | 85 | 1020.2 |
| 20260831213435 | 73 | 292 | 1.7 | 2.6 | 0.00 | 0.00 | 0.00 | 87 | 1020.4 |
| 20260831212935 | 73 | 292 | 2.6 | 3.5 | 0.00 | 0.00 | 0.00 | 89 | 1020.2 |
| 20260831212431 | 73 | 292 | 3.5 | 3.5 | 0.00 | 0.00 | 0.00 | 88 | 1020.2 |
| 20260831211931 | 73 | 286 | 1.7 | 2.6 | 0.00 | 0.00 | 0.00 | 87 | 1020.3 |
| 20260831211426 | 73 | 283 | 1.7 | 2.6 | 0.00 | 0.00 | 0.00 | 87 | 1020.4 |
| 20260831210925 | 73 | 266 | 0.9 | 2.6 | 0.00 | 0.00 | 0.00 | 86 | 1020.5 |
| 20260831210421 | 73 | 266 | 1.7 | 2.6 | 0.00 | 0.00 | 0.00 | 84 | 1020.5 |
| 20260831205916 | 73 | 271 | 0.9 | 0.9 | 0.00 | 0.00 | 0.00 | 83 | 1020.5 |
| 20260831205407 | 74 | 271 | 0.9 | 2.6 | 0.00 | 0.00 | 0.00 | 83 | 1020.5 |
| 20260831204906 | 74 | 279 | 2.6 | 2.6 | 0.00 | 0.00 | 0.00 | 82 | 1020.7 |
| 20260831204405 | 74 | 278 | 0.9 | 2.6 | 0.00 | 0.00 | 0.00 | 85 | 1020.7 |
| 20260831203900 | 74 | 259 | 0.0 | 0.9 | 0.00 | 0.00 | 0.00 | 84 | 1020.6 |
| 20260831203355 | 74 | 278 | 1.7 | 2.6 | 0.00 | 0.00 | 0.00 | 84 | 1020.3 |
| 20260831202853 | 74 | 278 | 0.9 | 0.9 | 0.00 | 0.00 | 0.00 | 86 | 1020.3 |
| 20260831202348 | 74 | 278 | 1.7 | 2.6 | 0.00 | 0.00 | 0.00 | 86 | 1020.3 |
| 20260831201847 | 73 | 278 | 0.9 | 0.9 | 0.00 | 0.00 | 0.00 | 86 | 1020.5 |
| 20260831201346 | 74 | 278 | 0.0 | 0.9 | 0.00 | 0.00 | 0.00 | 89 | 1020.4 |
| 20260831200842 | 73 | 278 | 0.0 | 0.0 | 0.00 | 0.00 | 0.00 | 87 | 1020.5 |
| 20260831200337 | 73 | 278 | 0.0 | 0.9 | 0.00 | 0.00 | 0.00 | 86 | 1020.8 |
| 20260831195832 | 74 | 278 | 0.9 | 0.9 | 0.00 | 0.00 | 0.00 | 83 | 1020.6 |
| 20260831195328 | 74 | 278 | 0.0 | 0.0 | 0.00 | 0.00 | 0.00 | 84 | 1020.9 |
| 20260831194823 | 74 | 278 | 0.0 | 0.9 | 0.00 | 0.00 | 0.00 | 84 | 1020.8 |
| 20260831194318 | 74 | 278 | 0.0 | 0.9 | 0.00 | 0.00 | 0.00 | 83 | 1021.1 |
| 20260831193817 | 75 | 278 | 0.0 | 0.0 | 0.00 | 0.00 | 0.00 | 83 | 1021.3 |
| 20260831193313 | 75 | 278 | 0.0 | 0.9 | 0.00 | 0.00 | 0.00 | 82 | 1021.1 |
| 20260831192808 | 75 | 278 | 1.7 | 2.6 | 0.00 | 0.00 | 0.00 | 81 | 1021.2 |
| 20260831192305 | 75 | 278 | 0.9 | 2.6 | 0.00 | 0.00 | 0.00 | 83 | 1021.1 |
| 20260831191759 | 76 | 277 | 0.0 | 0.9 | 0.00 | 0.00 | 0.00 | 81 | 1021.1 |
| 20260831191255 | 75 | 278 | 0.0 | 0.0 | 0.00 | 0.00 | 0.00 | 82 | 1021.1 |
| 20260831190750 | 75 | 278 | 0.0 | 0.0 | 0.00 | 0.00 | 0.00 | 83 | 1021.2 |
| 20260831190250 | 74 | 278 | 0.0 | 0.0 | 0.00 | 0.00 | 0.00 | 82 | 1021.3 |
| 20260831185745 | 74 | 278 | 0.0 | 0.9 | 0.00 | 0.00 | 0.00 | 83 | 1021.3 |
| 20260831185241 | 75 | 278 | 0.0 | 0.9 | 0.00 | 0.00 | 0.00 | 80 | 1021.3 |
| 20260831184739 | 75 | 278 | 0.9 | 0.9 | 0.00 | 0.00 | 0.00 | 81 | 1021.5 |
| 20260831184236 | 75 | 278 | 0.0 | 0.0 | 0.00 | 0.00 | 0.00 | 81 | 1021.3 |
| 20260831183735 | 75 | 278 | 0.0 | 0.0 | 0.00 | 0.00 | 0.00 | 80 | 1021.5 |
| 20260831183230 | 75 | 278 | 0.9 | 0.9 | 0.00 | 0.00 | 0.00 | 79 | 1021.6 |
| 20260831182729 | 76 | 277 | 0.0 | 0.0 | 0.00 | 0.00 | 0.00 | 79 | 1021.5 |
| 20260831182225 | 76 | 277 | 0.9 | 0.9 | 0.00 | 0.00 | 0.00 | 78 | 1021.6 |
| 20260831181725 | 76 | 277 | 0.0 | 0.9 | 0.00 | 0.00 | 0.00 | 77 | 1021.4 |
| 20260831181220 | 75 | 276 | 0.0 | 0.9 | 0.00 | 0.00 | 0.00 | 77 | 1021.7 |
| 20260831180715 | 75 | 277 | 0.0 | 0.9 | 0.00 | 0.00 | 0.00 | 79 | 1021.6 |
| 20260831180209 | 75 | 276 | 0.0 | 0.9 | 0.00 | 0.00 | 0.00 | 78 | 1021.4 |
| 20260831175708 | 75 | 276 | 0.0 | 0.9 | 0.00 | 0.00 | 0.00 | 79 | 1021.5 |
| 20260831175205 | 75 | 276 | 0.0 | 0.0 | 0.00 | 0.00 | 0.00 | 78 | 1021.8 |
| 20260831174700 | 75 | 276 | 0.0 | 0.9 | 0.00 | 0.00 | 0.00 | 78 | 1021.8 |
| 20260831174155 | 75 | 276 | 0.0 | 0.9 | 0.00 | 0.00 | 0.00 | 79 | 1021.6 |
| 20260831173654 | 75 | 276 | 0.9 | 0.9 | 0.00 | 0.00 | 0.00 | 79 | 1021.8 |
| 20260831173150 | 75 | 276 | 1.7 | 2.6 | 0.00 | 0.00 | 0.00 | 79 | 1021.8 |
| 20260831172649 | 75 | 275 | 0.0 | 0.9 | 0.00 | 0.00 | 0.00 | 79 | 1021.8 |
| 20260831172144 | 75 | 215 | 0.9 | 0.9 | 0.00 | 0.00 | 0.00 | 77 | 1021.7 |
| 20260831171639 | 76 | 214 | 0.0 | 0.0 | 0.00 | 0.00 | 0.00 | 75 | 1021.6 |
| 20260831171137 | 76 | 214 | 0.9 | 0.9 | 0.00 | 0.00 | 0.00 | 77 | 1021.7 |
| 20260831170633 | 77 | 280 | 1.7 | 2.6 | 0.00 | 0.00 | 0.00 | 75 | 1021.9 |
| 20260831170130 | 77 | 249 | 0.9 | 0.9 | 0.00 | 0.00 | 0.00 | 75 | 1021.8 |
| 20260831165625 | 76 | 276 | 0.0 | 0.9 | 0.00 | 0.00 | 0.00 | 79 | 1021.7 |
| 20260831165122 | 77 | 253 | 0.9 | 0.9 | 0.00 | 0.00 | 0.00 | 76 | 1021.7 |
| 20260831164617 | 77 | 139 | 0.0 | 0.0 | 0.00 | 0.00 | 0.00 | 75 | 1021.9 |
| 20260831164113 | 77 | 140 | 0.0 | 0.0 | 0.00 | 0.00 | 0.00 | 75 | 1022.0 |
| 20260831163608 | 76 | 139 | 0.0 | 2.6 | 0.00 | 0.00 | 0.00 | 75 | 1021.9 |
| 20260831163103 | 78 | 105 | 2.6 | 4.3 | 0.00 | 0.00 | 0.00 | 73 | 1021.7 |
| 20260831162603 | 76 | 85 | 0.0 | 0.9 | 0.00 | 0.00 | 0.00 | 73 | 1021.7 |
| 20260831162100 | 76 | 192 | 1.7 | 3.5 | 0.00 | 0.00 | 0.00 | 75 | 1021.8 |
| 20260831161556 | 76 | 84 | 1.7 | 3.5 | 0.00 | 0.00 | 0.00 | 74 | 1021.7 |
| 20260831161053 | 75 | 206 | 0.0 | 0.9 | 0.00 | 0.00 | 0.00 | 76 | 1021.7 |
| 20260831160551 | 74 | 177 | 1.7 | 2.6 | 0.00 | 0.00 | 0.00 | 78 | 1021.7 |
| 20260831160047 | 73 | 163 | 0.9 | 3.5 | 0.00 | 0.00 | 0.00 | 78 | 1021.8 |
| 20260831155542 | 74 | 149 | 0.9 | 2.6 | 0.00 | 0.00 | 0.00 | 77 | 1022.1 |
| 20260831155037 | 74 | 94 | 0.0 | 0.9 | 0.00 | 0.00 | 0.00 | 78 | 1021.9 |
| 20260831154533 | 74 | 124 | 0.9 | 0.9 | 0.00 | 0.00 | 0.00 | 77 | 1022.1 |
| 20260831154032 | 74 | 101 | 3.5 | 3.5 | 0.00 | 0.00 | 0.00 | 78 | 1022.0 |
| 20260831153526 | 73 | 124 | 0.0 | 3.5 | 0.00 | 0.00 | 0.00 | 79 | 1022.0 |
| 20260831153023 | 73 | 86 | 1.7 | 2.6 | 0.00 | 0.00 | 0.00 | 79 | 1022.2 |
| 20260831152518 | 73 | 123 | 0.0 | 2.6 | 0.00 | 0.00 | 0.00 | 80 | 1022.0 |
| 20260831152014 | 72 | 108 | 1.7 | 3.5 | 0.00 | 0.00 | 0.00 | 80 | 1022.2 |
| 20260831151508 | 72 | 139 | 1.7 | 3.5 | 0.00 | 0.00 | 0.00 | 81 | 1022.3 |
| 20260831151002 | 72 | 116 | 2.6 | 3.5 | 0.00 | 0.00 | 0.00 | 81 | 1022.1 |
| 20260831150458 | 72 | 147 | 1.7 | 2.6 | 0.00 | 0.00 | 0.00 | 80 | 1022.3 |
| 20260831145957 | 72 | 138 | 0.9 | 0.9 | 0.00 | 0.00 | 0.00 | 80 | 1022.2 |
| 20260831145453 | 73 | 138 | 0.0 | 0.9 | 0.00 | 0.00 | 0.00 | 80 | 1022.1 |
| 20260831144949 | 73 | 138 | 0.0 | 0.9 | 0.00 | 0.00 | 0.00 | 79 | 1022.2 |
| 20260831144443 | 73 | 138 | 0.9 | 0.9 | 0.00 | 0.00 | 0.00 | 79 | 1022.3 |
| 20260831143939 | 72 | 138 | 0.0 | 0.0 | 0.00 | 0.00 | 0.00 | 78 | 1022.3 |
| 20260831143434 | 72 | 138 | 0.0 | 0.0 | 0.00 | 0.00 | 0.00 | 82 | 1022.2 |
| 20260831142929 | 71 | 138 | 0.0 | 2.6 | 0.00 | 0.00 | 0.00 | 82 | 1022.2 |
| 20260831142426 | 72 | 117 | 1.7 | 2.6 | 0.00 | 0.00 | 0.00 | 79 | 1022.2 |
| 20260831141926 | 73 | 109 | 0.0 | 0.9 | 0.00 | 0.00 | 0.00 | 81 | 1022.2 |
| 20260831141419 | 72 | 148 | 0.9 | 0.9 | 0.00 | 0.00 | 0.00 | 81 | 1022.1 |
| 20260831140915 | 72 | 114 | 0.9 | 0.9 | 0.00 | 0.00 | 0.00 | 80 | 1022.4 |
| 20260831140409 | 72 | 114 | 0.0 | 0.9 | 0.00 | 0.00 | 0.00 | 81 | 1022.2 |
| 20260831135908 | 71 | 114 | 0.0 | 0.0 | 0.00 | 0.00 | 0.00 | 83 | 1022.3 |
| 20260831135403 | 71 | 114 | 0.0 | 0.0 | 0.00 | 0.00 | 0.00 | 84 | 1022.0 |
| 20260831134858 | 70 | 114 | 0.0 | 2.6 | 0.00 | 0.00 | 0.00 | 83 | 1022.0 |
| 20260831134354 | 70 | 124 | 0.9 | 2.6 | 0.00 | 0.00 | 0.00 | 84 | 1022.0 |
| 20260831133853 | 71 | 122 | 0.0 | 0.9 | 0.00 | 0.00 | 0.00 | 84 | 1022.2 |
| 20260831133348 | 70 | 121 | 0.9 | 2.6 | 0.00 | 0.00 | 0.00 | 84 | 1022.0 |
| 20260831132844 | 70 | 110 | 1.7 | 3.5 | 0.00 | 0.00 | 0.00 | 84 | 1022.2 |
| 20260831132338 | 70 | 123 | 0.0 | 2.6 | 0.00 | 0.00 | 0.00 | 85 | 1022.0 |
| 20260831131838 | 70 | 123 | 0.9 | 3.5 | 0.00 | 0.00 | 0.00 | 86 | 1022.1 |
| 20260831131334 | 70 | 103 | 2.6 | 4.3 | 0.00 | 0.00 | 0.00 | 85 | 1021.9 |
| 20260831130829 | 70 | 130 | 1.7 | 3.5 | 0.00 | 0.00 | 0.00 | 86 | 1021.9 |
| 20260831130325 | 70 | 92 | 2.6 | 6.1 | 0.00 | 0.00 | 0.00 | 86 | 1022.1 |
| 20260831125824 | 70 | 112 | 0.9 | 0.9 | 0.00 | 0.00 | 0.00 | 88 | 1022.0 |
| 20260831125319 | 69 | 128 | 0.0 | 0.9 | 0.00 | 0.00 | 0.00 | 88 | 1022.0 |
| 20260831124819 | 69 | 129 | 0.0 | 0.9 | 0.00 | 0.00 | 0.00 | 88 | 1022.0 |
| 20260831124315 | 69 | 132 | 1.7 | 2.6 | 0.00 | 0.00 | 0.00 | 89 | 1022.0 |
| 20260831123815 | 69 | 145 | 2.6 | 3.5 | 0.00 | 0.00 | 0.00 | 89 | 1021.9 |
| 20260831123313 | 68 | 114 | 1.7 | 4.3 | 0.00 | 0.00 | 0.00 | 89 | 1022.0 |
| 20260831122809 | 69 | 77 | 3.5 | 3.5 | 0.00 | 0.00 | 0.00 | 89 | 1022.1 |
| 20260831122306 | 69 | 124 | 1.7 | 3.5 | 0.00 | 0.00 | 0.00 | 88 | 1022.1 |
| 20260831121759 | 69 | 137 | 1.7 | 2.6 | 0.00 | 0.00 | 0.00 | 88 | 1022.0 |
| 20260831121255 | 68 | 138 | 0.0 | 0.9 | 0.00 | 0.00 | 0.00 | 89 | 1021.9 |
| 20260831120750 | 68 | 138 | 0.0 | 0.9 | 0.00 | 0.00 | 0.00 | 91 | 1022.0 |
| 20260831120245 | 68 | 138 | 0.0 | 2.6 | 0.00 | 0.00 | 0.00 | 91 | 1022.1 |
| 20260831115740 | 68 | 138 | 0.9 | 0.9 | 0.00 | 0.00 | 0.00 | 91 | 1022.1 |
| 20260831115237 | 68 | 138 | 0.9 | 0.9 | 0.00 | 0.00 | 0.00 | 91 | 1022.0 |
| 20260831114735 | 68 | 138 | 0.9 | 0.9 | 0.00 | 0.00 | 0.00 | 91 | 1021.9 |
| 20260831114235 | 67 | 138 | 0.0 | 0.9 | 0.00 | 0.00 | 0.00 | 92 | 1022.0 |
| 20260831113730 | 67 | 138 | 0.9 | 0.9 | 0.00 | 0.00 | 0.00 | 93 | 1021.7 |
| 20260831113225 | 67 | 138 | 0.0 | 0.9 | 0.00 | 0.00 | 0.00 | 93 | 1021.7 |
| 20260831112724 | 67 | 138 | 0.9 | 0.9 | 0.00 | 0.00 | 0.00 | 92 | 1021.6 |
| 20260831112220 | 67 | 138 | 0.9 | 0.9 | 0.00 | 0.00 | 0.00 | 92 | 1021.5 |
| 20260831111715 | 67 | 138 | 0.0 | 0.9 | 0.00 | 0.00 | 0.00 | 92 | 1021.5 |
| 20260831111211 | 67 | 138 | 0.9 | 0.9 | 0.00 | 0.00 | 0.00 | 92 | 1021.6 |
| 20260831110707 | 67 | 138 | 0.0 | 0.0 | 0.00 | 0.00 | 0.00 | 92 | 1021.5 |
| 20260831110202 | 67 | 138 | 0.0 | 0.0 | 0.00 | 0.00 | 0.00 | 92 | 1021.4 |
| 20260831105700 | 67 | 138 | 0.0 | 0.0 | 0.00 | 0.00 | 0.00 | 92 | 1021.5 |
| 20260831105156 | 67 | 138 | 0.0 | 0.9 | 0.00 | 0.00 | 0.00 | 92 | 1021.2 |
| 20260831104651 | 67 | 138 | 0.0 | 0.0 | 0.00 | 0.00 | 0.00 | 93 | 1021.3 |
| 20260831104147 | 67 | 138 | 0.0 | 0.0 | 0.00 | 0.00 | 0.00 | 93 | 1021.4 |
| 20260831103642 | 67 | 138 | 0.0 | 0.0 | 0.00 | 0.00 | 0.00 | 93 | 1021.1 |
| 20260831103132 | 67 | 138 | 0.0 | 0.0 | 0.00 | 0.00 | 0.00 | 93 | 1020.9 |
| 20260831102627 | 67 | 138 | 0.0 | 0.9 | 0.00 | 0.00 | 0.00 | 92 | 1021.1 |
| 20260831102121 | 67 | 138 | 0.0 | 2.6 | 0.00 | 0.00 | 0.00 | 92 | 1021.1 |
| 20260831101621 | 67 | 144 | 0.9 | 0.9 | 0.00 | 0.00 | 0.00 | 92 | 1021.1 |
| 20260831101118 | 67 | 142 | 0.9 | 2.6 | 0.00 | 0.00 | 0.00 | 92 | 1021.1 |
| 20260831100613 | 67 | 162 | 0.9 | 2.6 | 0.00 | 0.00 | 0.00 | 93 | 1021.2 |
| 20260831100109 | 67 | 162 | 0.0 | 0.0 | 0.00 | 0.00 | 0.00 | 93 | 1021.0 |
| 20260831095607 | 67 | 162 | 0.9 | 0.9 | 0.00 | 0.00 | 0.00 | 93 | 1021.0 |
| 20260831095102 | 68 | 162 | 0.9 | 0.9 | 0.00 | 0.00 | 0.00 | 92 | 1021.2 |
| 20260831094558 | 68 | 162 | 0.0 | 0.9 | 0.00 | 0.00 | 0.00 | 91 | 1021.2 |
| 20260831094054 | 67 | 162 | 0.0 | 0.9 | 0.00 | 0.00 | 0.00 | 91 | 1021.1 |
| 20260831093549 | 67 | 162 | 0.0 | 0.0 | 0.00 | 0.00 | 0.00 | 92 | 1021.1 |
| 20260831093045 | 67 | 162 | 0.0 | 0.0 | 0.00 | 0.00 | 0.00 | 92 | 1021.0 |
| 20260831092541 | 67 | 162 | 0.0 | 0.0 | 0.00 | 0.00 | 0.00 | 92 | 1021.0 |
| 20260831092037 | 68 | 162 | 0.0 | 0.0 | 0.00 | 0.00 | 0.00 | 92 | 1020.7 |
| 20260831091536 | 68 | 162 | 0.0 | 0.0 | 0.00 | 0.00 | 0.00 | 92 | 1020.9 |
| 20260831091032 | 68 | 162 | 0.9 | 0.9 | 0.00 | 0.00 | 0.00 | 92 | 1020.8 |
| 20260831090527 | 68 | 162 | 0.0 | 0.0 | 0.00 | 0.00 | 0.00 | 92 | 1020.5 |
| 20260831090023 | 68 | 162 | 0.9 | 0.9 | 0.00 | 0.00 | 0.00 | 92 | 1020.4 |
| 20260831085518 | 68 | 162 | 1.7 | 2.6 | 0.00 | 0.00 | 0.00 | 92 | 1020.3 |
| 20260831085018 | 68 | 162 | 0.0 | 2.6 | 0.00 | 0.00 | 0.00 | 93 | 1020.5 |
| 20260831084514 | 68 | 163 | 0.9 | 0.9 | 0.00 | 0.00 | 0.00 | 93 | 1020.6 |
| 20260831084011 | 68 | 163 | 0.0 | 0.0 | 0.00 | 0.00 | 0.00 | 93 | 1020.8 |
| 20260831083506 | 68 | 163 | 0.9 | 0.9 | 0.00 | 0.00 | 0.00 | 93 | 1020.6 |
| 20260831083006 | 68 | 164 | 0.0 | 0.0 | 0.00 | 0.00 | 0.00 | 93 | 1020.7 |
| 20260831082500 | 68 | 164 | 0.0 | 0.0 | 0.00 | 0.00 | 0.00 | 93 | 1020.9 |
| 20260831081955 | 68 | 164 | 0.0 | 0.9 | 0.00 | 0.00 | 0.00 | 93 | 1020.7 |
| 20260831081450 | 69 | 163 | 0.0 | 0.0 | 0.00 | 0.00 | 0.00 | 92 | 1020.8 |
| 20260831080946 | 69 | 163 | 0.0 | 0.9 | 0.00 | 0.00 | 0.00 | 92 | 1021.0 |
| 20260831080441 | 69 | 163 | 0.0 | 0.0 | 0.00 | 0.00 | 0.00 | 91 | 1020.8 |
| 20260831075936 | 69 | 163 | 0.0 | 0.9 | 0.00 | 0.00 | 0.00 | 90 | 1020.8 |
| 20260831075432 | 69 | 163 | 0.0 | 0.9 | 0.00 | 0.00 | 0.00 | 90 | 1020.7 |
| 20260831074927 | 70 | 163 | 0.0 | 0.9 | 0.00 | 0.00 | 0.00 | 90 | 1020.7 |
| 20260831074426 | 70 | 163 | 0.0 | 0.9 | 0.00 | 0.00 | 0.00 | 89 | 1020.8 |
| 20260831073921 | 70 | 163 | 0.0 | 0.0 | 0.00 | 0.00 | 0.00 | 89 | 1020.9 |
| 20260831073420 | 70 | 163 | 0.0 | 0.9 | 0.00 | 0.00 | 0.00 | 89 | 1021.2 |
| 20260831072915 | 70 | 164 | 0.0 | 0.0 | 0.00 | 0.00 | 0.00 | 88 | 1020.8 |
| 20260831072411 | 70 | 164 | 0.0 | 0.0 | 0.00 | 0.00 | 0.00 | 87 | 1021.1 |
| 20260831071908 | 70 | 163 | 0.0 | 0.9 | 0.00 | 0.00 | 0.00 | 87 | 1020.8 |
| 20260831071407 | 70 | 163 | 0.9 | 0.9 | 0.00 | 0.00 | 0.00 | 86 | 1020.7 |
| 20260831070906 | 71 | 164 | 0.0 | 2.6 | 0.00 | 0.00 | 0.00 | 86 | 1020.8 |
| 20260831070406 | 71 | 164 | 0.0 | 2.6 | 0.00 | 0.00 | 0.00 | 85 | 1020.5 |
| 20260831065905 | 71 | 164 | 0.9 | 0.9 | 0.00 | 0.00 | 0.00 | 85 | 1020.9 |
| 20260831065403 | 71 | 164 | 0.0 | 0.0 | 0.00 | 0.00 | 0.00 | 85 | 1020.9 |
| 20260831064858 | 71 | 164 | 0.0 | 0.0 | 0.00 | 0.00 | 0.00 | 84 | 1020.7 |
| 20260831064353 | 71 | 164 | 0.0 | 0.0 | 0.00 | 0.00 | 0.00 | 84 | 1020.6 |
| 20260831063849 | 71 | 164 | 0.0 | 0.0 | 0.00 | 0.00 | 0.00 | 83 | 1020.7 |
| 20260831063344 | 71 | 164 | 0.0 | 0.9 | 0.00 | 0.00 | 0.00 | 83 | 1020.6 |
| 20260831062844 | 71 | 164 | 0.0 | 0.9 | 0.00 | 0.00 | 0.00 | 83 | 1020.6 |
| 20260831062339 | 71 | 164 | 0.0 | 0.9 | 0.00 | 0.00 | 0.00 | 83 | 1020.7 |
| 20260831061838 | 71 | 164 | 0.0 | 0.0 | 0.00 | 0.00 | 0.00 | 82 | 1020.6 |
| 20260831061337 | 71 | 164 | 0.9 | 0.9 | 0.00 | 0.00 | 0.00 | 82 | 1020.6 |
| 20260831060833 | 71 | 165 | 0.0 | 0.0 | 0.00 | 0.00 | 0.00 | 82 | 1020.7 |
| 20260831060328 | 72 | 165 | 0.0 | 0.0 | 0.00 | 0.00 | 0.00 | 82 | 1020.9 |
| 20260831055827 | 72 | 165 | 0.0 | 0.0 | 0.00 | 0.00 | 0.00 | 82 | 1020.8 |
| 20260831055322 | 72 | 164 | 0.0 | 0.9 | 0.00 | 0.00 | 0.00 | 81 | 1020.9 |
| 20260831054817 | 71 | 272 | 0.0 | 0.9 | 0.00 | 0.00 | 0.00 | 83 | 1020.8 |
| 20260831054312 | 71 | 272 | 0.0 | 0.9 | 0.00 | 0.00 | 0.00 | 83 | 1020.8 |
| 20260831053811 | 71 | 272 | 0.0 | 0.9 | 0.00 | 0.00 | 0.00 | 85 | 1020.6 |
| 20260831053310 | 71 | 273 | 0.0 | 0.9 | 0.00 | 0.00 | 0.00 | 84 | 1020.8 |
| 20260831052805 | 72 | 273 | 0.9 | 2.6 | 0.00 | 0.00 | 0.00 | 84 | 1020.8 |
| 20260831052307 | 72 | 273 | 0.0 | 0.0 | 0.00 | 0.00 | 0.00 | 80 | 1020.6 |
| 20260831051802 | 72 | 273 | 0.0 | 0.9 | 0.00 | 0.00 | 0.00 | 80 | 1020.7 |
| 20260831051301 | 72 | 273 | 0.9 | 0.9 | 0.00 | 0.00 | 0.00 | 81 | 1020.6 |
| 20260831050756 | 72 | 273 | 0.0 | 0.9 | 0.00 | 0.00 | 0.00 | 81 | 1020.7 |
| 20260831050256 | 72 | 273 | 0.0 | 0.0 | 0.00 | 0.00 | 0.00 | 83 | 1020.5 |
| 20260831045750 | 72 | 273 | 0.0 | 0.0 | 0.00 | 0.00 | 0.00 | 82 | 1020.5 |
| 20260831045245 | 72 | 273 | 0.0 | 0.0 | 0.00 | 0.00 | 0.00 | 81 | 1020.6 |
| 20260831044739 | 73 | 273 | 0.0 | 0.0 | 0.00 | 0.00 | 0.00 | 81 | 1020.6 |
| 20260831044234 | 73 | 273 | 0.0 | 0.9 | 0.00 | 0.00 | 0.00 | 81 | 1020.8 |
| 20260831043730 | 72 | 273 | 0.9 | 0.9 | 0.00 | 0.00 | 0.00 | 81 | 1020.8 |
| 20260831043225 | 72 | 274 | 0.9 | 2.6 | 0.00 | 0.00 | 0.00 | 82 | 1020.8 |
| 20260831042724 | 72 | 274 | 0.0 | 0.0 | 0.00 | 0.00 | 0.00 | 82 | 1021.0 |
| 20260831042219 | 73 | 274 | 0.0 | 0.0 | 0.00 | 0.00 | 0.00 | 81 | 1021.0 |
| 20260831041714 | 73 | 274 | 0.0 | 0.9 | 0.00 | 0.00 | 0.00 | 82 | 1020.9 |
| 20260831041209 | 73 | 274 | 0.0 | 0.0 | 0.00 | 0.00 | 0.00 | 81 | 1020.9 |
| 20260831040709 | 73 | 275 | 0.9 | 2.6 | 0.00 | 0.00 | 0.00 | 81 | 1020.9 |
| 20260831040208 | 72 | 274 | 0.9 | 2.6 | 0.00 | 0.00 | 0.00 | 82 | 1020.9 |
| 20260831035706 | 72 | 275 | 0.0 | 0.9 | 0.00 | 0.00 | 0.00 | 83 | 1021.0 |
| 20260831035201 | 73 | 275 | 0.0 | 0.0 | 0.00 | 0.00 | 0.00 | 82 | 1021.2 |
| 20260831034701 | 73 | 275 | 0.0 | 0.0 | 0.00 | 0.00 | 0.00 | 80 | 1021.0 |
| 20260831034156 | 74 | 275 | 0.9 | 2.6 | 0.00 | 0.00 | 0.00 | 78 | 1021.1 |
| 20260831033652 | 74 | 274 | 1.7 | 2.6 | 0.00 | 0.00 | 0.00 | 78 | 1021.1 |
| 20260831033151 | 73 | 275 | 1.7 | 2.6 | 0.00 | 0.00 | 0.00 | 79 | 1021.1 |
| 20260831032651 | 73 | 275 | 0.9 | 2.6 | 0.00 | 0.00 | 0.00 | 80 | 1021.1 |
| 20260831032147 | 73 | 275 | 0.9 | 0.9 | 0.00 | 0.00 | 0.00 | 80 | 1021.1 |
| 20260831031642 | 73 | 275 | 0.9 | 0.9 | 0.00 | 0.00 | 0.00 | 80 | 1021.2 |
| 20260831031142 | 73 | 275 | 0.9 | 0.9 | 0.00 | 0.00 | 0.00 | 80 | 1021.1 |
| 20260831030640 | 73 | 275 | 1.7 | 2.6 | 0.00 | 0.00 | 0.00 | 81 | 1021.0 |
| 20260831030139 | 73 | 274 | 0.9 | 0.9 | 0.00 | 0.00 | 0.00 | 82 | 1021.0 |
| 20260831025638 | 73 | 275 | 1.7 | 2.6 | 0.00 | 0.00 | 0.00 | 80 | 1021.1 |
| 20260831025133 | 73 | 275 | 0.9 | 0.9 | 0.00 | 0.00 | 0.00 | 79 | 1021.3 |
| 20260831024629 | 74 | 274 | 0.9 | 0.9 | 0.00 | 0.00 | 0.00 | 79 | 1021.3 |
| 20260831024128 | 74 | 274 | 0.0 | 0.0 | 0.00 | 0.00 | 0.00 | 79 | 1021.2 |
| 20260831023626 | 74 | 274 | 0.0 | 0.9 | 0.00 | 0.00 | 0.00 | 78 | 1021.1 |
| 20260831023125 | 74 | 239 | 0.9 | 0.9 | 0.00 | 0.00 | 0.00 | 77 | 1021.3 |
| 20260831022620 | 74 | 293 | 0.9 | 0.9 | 0.00 | 0.00 | 0.00 | 78 | 1021.2 |
| 20260831022115 | 74 | 293 | 0.9 | 2.6 | 0.00 | 0.00 | 0.00 | 77 | 1021.3 |
| 20260831021614 | 74 | 293 | 0.9 | 0.9 | 0.00 | 0.00 | 0.00 | 77 | 1021.1 |
| 20260831021110 | 75 | 293 | 0.9 | 0.9 | 0.00 | 0.00 | 0.00 | 77 | 1021.4 |
| 20260831020606 | 75 | 293 | 0.9 | 2.6 | 0.00 | 0.00 | 0.00 | 77 | 1021.3 |
| 20260831015556 | 75 | 293 | 0.9 | 0.9 | 0.00 | 0.00 | 0.00 | 77 | 1021.1 |
| 20260831015050 | 74 | 293 | 0.9 | 0.9 | 0.00 | 0.00 | 0.00 | 79 | 1021.1 |
| 20260831014545 | 74 | 293 | 0.0 | 0.9 | 0.00 | 0.00 | 0.00 | 80 | 1021.1 |
| 20260831014041 | 74 | 293 | 0.0 | 0.9 | 0.00 | 0.00 | 0.00 | 80 | 1021.3 |
| 20260831013537 | 75 | 293 | 0.9 | 0.9 | 0.00 | 0.00 | 0.00 | 79 | 1021.1 |
| 20260831013037 | 75 | 293 | 0.0 | 0.0 | 0.00 | 0.00 | 0.00 | 76 | 1021.1 |
| 20260831012532 | 75 | 292 | 0.9 | 0.9 | 0.00 | 0.00 | 0.00 | 77 | 1021.0 |
| 20260831012032 | 75 | 293 | 0.0 | 2.6 | 0.00 | 0.00 | 0.00 | 75 | 1021.0 |
| 20260831011526 | 75 | 293 | 0.0 | 0.9 | 0.00 | 0.00 | 0.00 | 78 | 1021.0 |
| 20260831011022 | 75 | 293 | 0.0 | 0.0 | 0.00 | 0.00 | 0.00 | 79 | 1020.9 |
| 20260831010516 | 75 | 293 | 0.0 | 0.9 | 0.00 | 0.00 | 0.00 | 79 | 1020.9 |
| 20260831010013 | 75 | 293 | 0.9 | 0.9 | 0.00 | 0.00 | 0.00 | 80 | 1020.9 |
| 20260831005508 | 75 | 293 | 0.0 | 0.0 | 0.00 | 0.00 | 0.00 | 80 | 1020.9 |
| 20260831005007 | 75 | 293 | 0.0 | 0.0 | 0.00 | 0.00 | 0.00 | 81 | 1020.8 |
| 20260831004503 | 75 | 293 | 0.0 | 0.0 | 0.00 | 0.00 | 0.00 | 81 | 1020.8 |
| 20260831003959 | 75 | 293 | 0.0 | 0.9 | 0.00 | 0.00 | 0.00 | 81 | 1020.5 |
| 20260831003455 | 75 | 293 | 0.0 | 0.0 | 0.00 | 0.00 | 0.00 | 82 | 1020.6 |
| 20260831002954 | 75 | 293 | 0.0 | 0.0 | 0.00 | 0.00 | 0.00 | 84 | 1020.2 |
| 20260831002453 | 75 | 293 | 0.0 | 0.0 | 0.00 | 0.00 | 0.00 | 85 | 1020.2 |
| 20260831001949 | 75 | 293 | 0.0 | 0.0 | 0.00 | 0.00 | 0.00 | 85 | 1020.0 |
| 20260831001444 | 75 | 293 | 0.0 | 0.0 | 0.00 | 0.00 | 0.00 | 86 | 1020.0 |
| 20260831000941 | 75 | 293 | 0.0 | 0.0 | 0.00 | 0.00 | 0.00 | 87 | 1020.1 |
| 20260831000437 | 75 | 293 | 0.0 | 0.9 | 0.00 | 0.00 | 0.00 | 87 | 1020.2 |
| 20260830235934 | 75 | 293 | 0.9 | 0.9 | 0.00 | 0.00 | 0.00 | 88 | 1020.0 |
| 20260830235430 | 75 | 293 | 0.0 | 0.0 | 0.00 | 0.00 | 0.00 | 89 | 1020.2 |
| 20260830234925 | 75 | 293 | 0.0 | 0.0 | 0.00 | 0.00 | 0.00 | 86 | 1020.1 |
| 20260830234420 | 75 | 293 | 0.0 | 0.0 | 0.00 | 0.00 | 0.00 | 86 | 1020.1 |
| 20260830233916 | 75 | 293 | 0.0 | 0.0 | 0.00 | 0.00 | 0.00 | 86 | 1020.1 |
| 20260830233411 | 75 | 293 | 0.0 | 0.0 | 0.00 | 0.00 | 0.00 | 86 | 1020.0 |
| 20260830232907 | 75 | 293 | 0.0 | 0.0 | 0.00 | 0.00 | 0.00 | 86 | 1020.0 |
| 20260830232403 | 75 | 293 | 0.0 | 0.0 | 0.00 | 0.00 | 0.00 | 86 | 1019.8 |
| 20260830231859 | 75 | 293 | 0.0 | 0.0 | 0.00 | 0.00 | 0.00 | 87 | 1020.0 |
| 20260830231354 | 75 | 293 | 0.0 | 0.0 | 0.00 | 0.00 | 0.00 | 87 | 1019.9 |
| 20260830230853 | 75 | 293 | 0.0 | 0.0 | 0.00 | 0.00 | 0.00 | 86 | 1019.9 |
| 20260830230349 | 76 | 293 | 0.0 | 0.0 | 0.00 | 0.00 | 0.00 | 87 | 1019.9 |